< Cyclone 197004 1970 Season Cyclone 197006 >
Cyclone 197005 (DAWN)
General InformationTrack Information on Google Maps || ResourceGoogle EarthGE AnimationAtom FeedGeoJSON
Detalied Best Track (Time Zone = UTC)
Year Month Day Hour Lat. Long. Pressure (hPa) Wind (kt) Class Image Chart
1970 2 10 05 -13.8 138.5 1000 0 0 -- --
1970 2 10 11 -13.0 139.5 999 0 0 -- --
1970 2 10 23 -11.9 141.8 994 0 0 -- --
1970 2 11 05 -11.6 143.0 994 0 0 -- --
1970 2 11 08 -11.4 143.6 994 0 0 -- --
1970 2 11 11 -11.3 144.2 992 0 0 -- --
1970 2 11 17 -11.4 144.6 990 0 0 -- --
1970 2 11 23 -11.9 146.7 992 0 0 -- --
1970 2 12 11 -12.9 147.9 992 0 0 -- --
1970 2 12 23 -13.9 149.1 994 0 0 -- --
1970 2 13 05 -14.1 149.9 995 0 0 -- --
1970 2 13 11 -14.1 151.1 995 0 0 -- --
1970 2 13 23 -13.5 153.4 995 0 0 -- --
1970 2 14 05 -13.4 154.4 995 0 0 -- --
1970 2 14 11 -13.4 155.4 995 0 0 -- --
1970 2 14 23 -13.5 157.4 995 0 0 -- --
1970 2 15 08 -13.8 158.9 995 0 0 -- --
1970 2 15 11 -14.0 159.2 995 0 0 -- --
1970 2 15 23 -14.9 160.6 995 0 0 -- --
1970 2 16 11 -15.9 161.6 995 0 0 -- --
1970 2 16 14 -16.3 161.8 995 0 0 -- --
1970 2 16 23 -17.6 162.0 995 0 0 -- --
1970 2 17 11 -19.4 161.8 995 0 0 -- --
1970 2 17 23 -21.1 161.2 995 0 0 -- --
1970 2 18 11 -22.8 160.0 996 0 0 -- --
1970 2 18 23 -24.2 158.8 998 0 0 -- --
1970 2 19 05 -24.9 158.0 1004 0 0 -- --
< Cyclone 197004 1970 Season Cyclone 197006 >

Help